Xin Ou Zhou — BPKB — position and weather

sailwx.info

Track history (hours):
 
Tides and Currents Weather Stations Pressure Air Temp Water Temp Dewpoint Dewpoint Depression Visibility Wind Speed Wind Dir Waves Ship Positions

Xin Ou Zhou

Last reported at 2017-Nov-19 14:00 UTC. Time now 2017-Nov-19 14:15 UTC.
Position N 42°22' W 070°34'.

Length 335 m; draft 11.1 m.

Type: Cargo ship. MMSI: 413159000.

Date/timePositionNaut miles runAvg speedWind from/ knotsBaromVisibWave heightAir tempDewpointWater temp
2017-Nov-19 14:00N 42°22' W 070°34'714.4
2017-Nov-19 13:30N 42°21' W 070°25'816.0
2017-Nov-19 13:00N 42°20' W 070°14'714.8
2017-Nov-19 12:30N 42°20' W 070°04'190 8.5
2017-Nov-18 14:09N 40°24' W 073°24'1111.6
2017-Nov-18 13:15N 40°25' W 073°38'3 9.8
2017-Nov-18 12:58N 40°26' W 073°41'5 9.8
2017-Nov-18 12:30N 40°27' W 073°47'5 9.4
2017-Nov-18 12:01N 40°28' W 073°53'5 9.9
2017-Nov-18 11:30N 40°31' W 073°59'715.2
2017-Nov-18 11:00N 40°37' W 074°03'3 6.4
2017-Nov-18 10:30N 40°39' W 074°07'2 3.3
2017-Nov-18 10:00N 40°39' W 074°09'1 2.2
2017-Nov-18 09:30N 40°40' W 074°08'1 1.1
2017-Nov-18 08:56N 40°41' W 074°09'0 0.0
2017-Nov-18 08:29N 40°41' W 074°09'0 0.0
2017-Nov-18 07:59N 40°41' W 074°09'0 0.0
2017-Nov-18 07:29N 40°41' W 074°09'0 0.0
2017-Nov-18 06:59N 40°41' W 074°09'0 0.0
2017-Nov-18 06:29N 40°41' W 074°09'0 0.0
2017-Nov-18 05:59N 40°41' W 074°09'0 0.0
2017-Nov-18 05:29N 40°41' W 074°09'0 0.0
2017-Nov-18 04:59N 40°41' W 074°09'0 0.0
2017-Nov-18 04:29N 40°41' W 074°09'0 0.0
2017-Nov-18 03:59N 40°41' W 074°09'0 0.0
2017-Nov-18 03:29N 40°41' W 074°09'0 0.0
2017-Nov-18 02:59N 40°41' W 074°09'0 0.0
2017-Nov-18 02:29N 40°41' W 074°09'0 0.0
2017-Nov-18 01:59N 40°41' W 074°09'0 0.0
2017-Nov-18 01:29N 40°41' W 074°09'0 0.0
2017-Nov-18 00:59N 40°41' W 074°09'0 0.0
2017-Nov-18 00:29N 40°41' W 074°09'0 0.0
2017-Nov-17 23:59N 40°41' W 074°09'0 0.0
2017-Nov-17 23:29N 40°41' W 074°09'0 0.0
2017-Nov-17 22:59N 40°41' W 074°09'0 0.0
2017-Nov-17 22:29N 40°41' W 074°09'0 0.0
2017-Nov-17 21:59N 40°41' W 074°09'0 0.0
2017-Nov-17 21:29N 40°41' W 074°09'0 0.0
2017-Nov-17 20:59N 40°41' W 074°09'0 0.0
2017-Nov-17 20:29N 40°41' W 074°09'0 0.0
2017-Nov-17 19:59N 40°41' W 074°09'0 0.0
2017-Nov-17 19:29N 40°41' W 074°09'0 0.0
2017-Nov-17 18:59N 40°41' W 074°09'0 0.0
2017-Nov-17 18:29N 40°41' W 074°09'0 0.0
2017-Nov-17 17:59N 40°41' W 074°09'0 0.0
2017-Nov-17 17:29N 40°41' W 074°09'0 0.0
2017-Nov-17 16:59N 40°41' W 074°09'0 0.0
2017-Nov-17 16:29N 40°41' W 074°09'0 0.0
2017-Nov-17 15:59N 40°41' W 074°09'0 0.0
2017-Nov-17 15:29N 40°41' W 074°09'0 0.0
2017-Nov-17 14:59N 40°41' W 074°09'0 0.0
2017-Nov-17 14:29N 40°41' W 074°09'0 0.0
2017-Nov-17 13:59N 40°41' W 074°09'0 0.0
2017-Nov-17 13:29N 40°41' W 074°09'0 0.0
2017-Nov-17 12:56N 40°41' W 074°09'0 0.0
2017-Nov-17 12:29N 40°41' W 074°09'0 0.0
2017-Nov-17 11:59N 40°41' W 074°09'0 0.0
2017-Nov-17 11:29N 40°41' W 074°09'0 0.0
2017-Nov-17 10:59N 40°41' W 074°09'0 0.0
2017-Nov-17 10:30N 40°41' W 074°09'0 0.0
2017-Nov-17 10:00N 40°41' W 074°09'0 0.0
2017-Nov-17 09:30N 40°41' W 074°09'0 0.0
2017-Nov-17 09:00N 40°41' W 074°09'0 0.0
2017-Nov-17 08:30N 40°41' W 074°09'0 0.0
2017-Nov-17 08:00N 40°41' W 074°09'0 0.0
2017-Nov-17 07:30N 40°41' W 074°09'0 0.0
2017-Nov-17 07:00N 40°41' W 074°09'0 0.0
2017-Nov-17 06:28N 40°41' W 074°09'0 0.0
2017-Nov-17 05:58N 40°41' W 074°09'0 0.0
2017-Nov-17 05:28N 40°41' W 074°09'0 0.0
2017-Nov-17 04:58N 40°41' W 074°09'0 0.0
2017-Nov-17 04:28N 40°41' W 074°09'0 0.0
2017-Nov-17 03:58N 40°41' W 074°09'0 0.0
2017-Nov-17 03:28N 40°41' W 074°09'0 0.0
2017-Nov-17 02:58N 40°41' W 074°09'0 0.0
2017-Nov-17 02:28N 40°41' W 074°09'0 0.0
2017-Nov-17 01:58N 40°41' W 074°09'0 0.0
2017-Nov-17 01:28N 40°41' W 074°09'0 0.0
2017-Nov-17 00:58N 40°41' W 074°09'0 0.0
2017-Nov-17 00:30N 40°41' W 074°09'0 0.0
2017-Nov-17 00:00N 40°41' W 074°09'0 0.0
2017-Nov-16 23:30N 40°41' W 074°09'0 0.0
2017-Nov-16 23:00N 40°41' W 074°09'0 0.0
2017-Nov-16 22:30N 40°41' W 074°09'0 0.0
2017-Nov-16 22:00N 40°41' W 074°09'0 0.0
2017-Nov-16 21:30N 40°41' W 074°09'0 0.0
2017-Nov-16 21:00N 40°41' W 074°09'0 0.0
2017-Nov-16 20:30N 40°41' W 074°09'0 0.0
2017-Nov-16 20:00N 40°41' W 074°09'0 0.0
2017-Nov-16 19:28N 40°41' W 074°09'0 0.0
2017-Nov-16 18:58N 40°41' W 074°09'0 0.0
2017-Nov-16 18:28N 40°41' W 074°09'0 0.0
2017-Nov-16 17:58N 40°41' W 074°09'0 0.0
2017-Nov-16 17:29N 40°41' W 074°09'0 0.0
2017-Nov-16 16:58N 40°41' W 074°09'0 0.0
2017-Nov-16 16:28N 40°41' W 074°09'0 0.0
2017-Nov-16 15:58N 40°41' W 074°09'0 0.0
2017-Nov-16 15:28N 40°41' W 074°09'0 0.0
2017-Nov-16 14:58N 40°41' W 074°09'0 0.0
2017-Nov-16 14:28N 40°41' W 074°09'0 0.0
2017-Nov-16 13:58N 40°41' W 074°09'0 0.0
2017-Nov-16 13:29N 40°41' W 074°09'0 0.0
2017-Nov-16 12:59N 40°41' W 074°09'0 0.0
2017-Nov-16 12:29N 40°41' W 074°09'0 0.0
2017-Nov-16 11:59N 40°41' W 074°09'0 0.0
2017-Nov-16 11:30N 40°41' W 074°09'1 1.1
2017-Nov-16 11:00N 40°40' W 074°08'2 3.4
2017-Nov-16 10:30N 40°39' W 074°08'3 5.7
2017-Nov-16 10:00N 40°39' W 074°04'4 7.9
2017-Nov-16 09:30N 40°35' W 074°02'611.2
2017-Nov-16 09:00N 40°31' W 073°58'5 9.1
2017-Nov-16 08:30N 40°29' W 073°53'5 9.5
2017-Nov-16 08:00N 40°27' W 073°47'3 5.7
2017-Nov-16 07:30N 40°24' W 073°47'4 7.0
2017-Nov-16 06:59N 40°21' W 073°47'7314.4
2017-Nov-16 01:54N 39°07' W 073°44'1816.1
2017-Nov-16 00:48N 38°50' W 073°45'616.3
2017-Nov-16 00:27N 38°44' W 073°45'3317.0
2017-Nov-15 22:31N 38°11' W 073°48'316.7
2017-Nov-15 22:19N 38°08' W 073°48'  
Track history (hours):
 
Tides and Currents Weather Stations Pressure Air Temp Water Temp Dewpoint Dewpoint Depression Visibility Wind Speed Wind Dir Waves Ship Positions

Xin Ou Zhou

Last reported at 2017-Nov-19 14:00 UTC. Time now 2017-Nov-19 14:15 UTC.
Position N 42°22' W 070°34'.

Length 335 m; draft 11.1 m.

Type: Cargo ship. MMSI: 413159000.

Date/timePositionNaut miles runAvg speedWind from/ knotsBaromVisibWave heightAir tempDewpointWater temp
2017-Nov-19 14:00N 42°22' W 070°34'714.4
2017-Nov-19 13:30N 42°21' W 070°25'816.0
2017-Nov-19 13:00N 42°20' W 070°14'714.8
2017-Nov-19 12:30N 42°20' W 070°04'190 8.5
2017-Nov-18 14:09N 40°24' W 073°24'1111.6
2017-Nov-18 13:15N 40°25' W 073°38'3 9.8
2017-Nov-18 12:58N 40°26' W 073°41'5 9.8
2017-Nov-18 12:30N 40°27' W 073°47'5 9.4
2017-Nov-18 12:01N 40°28' W 073°53'5 9.9
2017-Nov-18 11:30N 40°31' W 073°59'715.2
2017-Nov-18 11:00N 40°37' W 074°03'3 6.4
2017-Nov-18 10:30N 40°39' W 074°07'2 3.3
2017-Nov-18 10:00N 40°39' W 074°09'1 2.2
2017-Nov-18 09:30N 40°40' W 074°08'1 1.1
2017-Nov-18 08:56N 40°41' W 074°09'0 0.0
2017-Nov-18 08:29N 40°41' W 074°09'0 0.0
2017-Nov-18 07:59N 40°41' W 074°09'0 0.0
2017-Nov-18 07:29N 40°41' W 074°09'0 0.0
2017-Nov-18 06:59N 40°41' W 074°09'0 0.0
2017-Nov-18 06:29N 40°41' W 074°09'0 0.0
2017-Nov-18 05:59N 40°41' W 074°09'0 0.0
2017-Nov-18 05:29N 40°41' W 074°09'0 0.0
2017-Nov-18 04:59N 40°41' W 074°09'0 0.0
2017-Nov-18 04:29N 40°41' W 074°09'0 0.0
2017-Nov-18 03:59N 40°41' W 074°09'0 0.0
2017-Nov-18 03:29N 40°41' W 074°09'0 0.0
2017-Nov-18 02:59N 40°41' W 074°09'0 0.0
2017-Nov-18 02:29N 40°41' W 074°09'0 0.0
2017-Nov-18 01:59N 40°41' W 074°09'0 0.0
2017-Nov-18 01:29N 40°41' W 074°09'0 0.0
2017-Nov-18 00:59N 40°41' W 074°09'0 0.0
2017-Nov-18 00:29N 40°41' W 074°09'0 0.0
2017-Nov-17 23:59N 40°41' W 074°09'0 0.0
2017-Nov-17 23:29N 40°41' W 074°09'0 0.0
2017-Nov-17 22:59N 40°41' W 074°09'0 0.0
2017-Nov-17 22:29N 40°41' W 074°09'0 0.0
2017-Nov-17 21:59N 40°41' W 074°09'0 0.0
2017-Nov-17 21:29N 40°41' W 074°09'0 0.0
2017-Nov-17 20:59N 40°41' W 074°09'0 0.0
2017-Nov-17 20:29N 40°41' W 074°09'0 0.0
2017-Nov-17 19:59N 40°41' W 074°09'0 0.0
2017-Nov-17 19:29N 40°41' W 074°09'0 0.0
2017-Nov-17 18:59N 40°41' W 074°09'0 0.0
2017-Nov-17 18:29N 40°41' W 074°09'0 0.0
2017-Nov-17 17:59N 40°41' W 074°09'0 0.0
2017-Nov-17 17:29N 40°41' W 074°09'0 0.0
2017-Nov-17 16:59N 40°41' W 074°09'0 0.0
2017-Nov-17 16:29N 40°41' W 074°09'0 0.0
2017-Nov-17 15:59N 40°41' W 074°09'0 0.0
2017-Nov-17 15:29N 40°41' W 074°09'0 0.0
2017-Nov-17 14:59N 40°41' W 074°09'0 0.0
2017-Nov-17 14:29N 40°41' W 074°09'0 0.0
2017-Nov-17 13:59N 40°41' W 074°09'0 0.0
2017-Nov-17 13:29N 40°41' W 074°09'0 0.0
2017-Nov-17 12:56N 40°41' W 074°09'0 0.0
2017-Nov-17 12:29N 40°41' W 074°09'0 0.0
2017-Nov-17 11:59N 40°41' W 074°09'0 0.0
2017-Nov-17 11:29N 40°41' W 074°09'0 0.0
2017-Nov-17 10:59N 40°41' W 074°09'0 0.0
2017-Nov-17 10:30N 40°41' W 074°09'0 0.0
2017-Nov-17 10:00N 40°41' W 074°09'0 0.0
2017-Nov-17 09:30N 40°41' W 074°09'0 0.0
2017-Nov-17 09:00N 40°41' W 074°09'0 0.0
2017-Nov-17 08:30N 40°41' W 074°09'0 0.0
2017-Nov-17 08:00N 40°41' W 074°09'0 0.0
2017-Nov-17 07:30N 40°41' W 074°09'0 0.0
2017-Nov-17 07:00N 40°41' W 074°09'0 0.0
2017-Nov-17 06:28N 40°41' W 074°09'0 0.0
2017-Nov-17 05:58N 40°41' W 074°09'0 0.0
2017-Nov-17 05:28N 40°41' W 074°09'0 0.0
2017-Nov-17 04:58N 40°41' W 074°09'0 0.0
2017-Nov-17 04:28N 40°41' W 074°09'0 0.0
2017-Nov-17 03:58N 40°41' W 074°09'0 0.0
2017-Nov-17 03:28N 40°41' W 074°09'0 0.0
2017-Nov-17 02:58N 40°41' W 074°09'0 0.0
2017-Nov-17 02:28N 40°41' W 074°09'0 0.0
2017-Nov-17 01:58N 40°41' W 074°09'0 0.0
2017-Nov-17 01:28N 40°41' W 074°09'0 0.0
2017-Nov-17 00:58N 40°41' W 074°09'0 0.0
2017-Nov-17 00:30N 40°41' W 074°09'0 0.0
2017-Nov-17 00:00N 40°41' W 074°09'0 0.0
2017-Nov-16 23:30N 40°41' W 074°09'0 0.0
2017-Nov-16 23:00N 40°41' W 074°09'0 0.0
2017-Nov-16 22:30N 40°41' W 074°09'0 0.0
2017-Nov-16 22:00N 40°41' W 074°09'0 0.0
2017-Nov-16 21:30N 40°41' W 074°09'0 0.0
2017-Nov-16 21:00N 40°41' W 074°09'0 0.0
2017-Nov-16 20:30N 40°41' W 074°09'0 0.0
2017-Nov-16 20:00N 40°41' W 074°09'0 0.0
2017-Nov-16 19:28N 40°41' W 074°09'0 0.0
2017-Nov-16 18:58N 40°41' W 074°09'0 0.0
2017-Nov-16 18:28N 40°41' W 074°09'0 0.0
2017-Nov-16 17:58N 40°41' W 074°09'0 0.0
2017-Nov-16 17:29N 40°41' W 074°09'0 0.0
2017-Nov-16 16:58N 40°41' W 074°09'0 0.0
2017-Nov-16 16:28N 40°41' W 074°09'0 0.0
2017-Nov-16 15:58N 40°41' W 074°09'0 0.0
2017-Nov-16 15:28N 40°41' W 074°09'0 0.0
2017-Nov-16 14:58N 40°41' W 074°09'0 0.0
2017-Nov-16 14:28N 40°41' W 074°09'0 0.0
2017-Nov-16 13:58N 40°41' W 074°09'0 0.0
2017-Nov-16 13:29N 40°41' W 074°09'0 0.0
2017-Nov-16 12:59N 40°41' W 074°09'0 0.0
2017-Nov-16 12:29N 40°41' W 074°09'0 0.0
2017-Nov-16 11:59N 40°41' W 074°09'0 0.0
2017-Nov-16 11:30N 40°41' W 074°09'1 1.1
2017-Nov-16 11:00N 40°40' W 074°08'2 3.4
2017-Nov-16 10:30N 40°39' W 074°08'3 5.7
2017-Nov-16 10:00N 40°39' W 074°04'4 7.9
2017-Nov-16 09:30N 40°35' W 074°02'611.2
2017-Nov-16 09:00N 40°31' W 073°58'5 9.1
2017-Nov-16 08:30N 40°29' W 073°53'5 9.5
2017-Nov-16 08:00N 40°27' W 073°47'3 5.7
2017-Nov-16 07:30N 40°24' W 073°47'4 7.0
2017-Nov-16 06:59N 40°21' W 073°47'7314.4
2017-Nov-16 01:54N 39°07' W 073°44'1816.1
2017-Nov-16 00:48N 38°50' W 073°45'616.3
2017-Nov-16 00:27N 38°44' W 073°45'3317.0
2017-Nov-15 22:31N 38°11' W 073°48'316.7
2017-Nov-15 22:19N 38°08' W 073°48'  

Dump ship's entire track history